Shemah Yisrael!
Hear, O Israel: the LORD our God, the LORD is one.
You shall love the LORD your God with all your heart and with all your soul and with all your might.
(Deuteronomy 6:4-5)
Houston / Ellington, TX, United States (KEFD) 29-36N 095-10W
Sep 17, 2018 - 11:50 AM EDT / 2018.09.17 1550 UTC
Wind: from the WNW (290 degrees) at 5 MPH (4 KT):0
Visibility: 10 mile(s):0
Sky conditions: partly cloudy
Temperature: 87 F (31 C)
Heat index: 97.5 F (36.4 C):1
Dew Point: 77 F (25 C)
Relative Humidity: 70%
Pressure (altimeter): 30.02 in. Hg (1016 hPa)
ob: KEFD 171550Z 29004KT 10SM FEW110 SCT220 31/25 A3002
cycle: 16
w e b m a s t e r   a t   s h e m a h   d o t   n e t